createdAt,value
2024-05-09T00:00:56.748Z,18.40
2024-05-09T00:03:29.032Z,20.33
2024-05-09T00:05:58.636Z,18.43
2024-05-09T00:08:28.282Z,18.97
2024-05-09T00:10:57.959Z,16.93
2024-05-09T00:13:27.549Z,18.23
2024-05-09T00:15:57.045Z,20.10
2024-05-09T00:18:29.360Z,18.30
2024-05-09T00:20:59.033Z,19.30
2024-05-09T00:23:29.140Z,17.20
2024-05-09T00:25:58.845Z,20.40
2024-05-09T00:28:28.439Z,21.10
2024-05-09T00:30:57.987Z,18.27
2024-05-09T00:33:30.908Z,18.23
2024-05-09T00:36:00.568Z,22.03
2024-05-09T00:38:30.237Z,20.17
2024-05-09T00:40:59.998Z,18.17
2024-05-09T00:43:29.596Z,20.23
2024-05-09T00:45:59.179Z,19.23
2024-05-09T00:48:31.558Z,20.07
2024-05-09T00:51:01.238Z,20.70
2024-05-09T00:53:30.909Z,25.43
2024-05-09T00:56:00.561Z,20.33
2024-05-09T00:58:30.624Z,20.47
2024-05-09T01:01:00.563Z,22.70
2024-05-09T01:03:33.136Z,21.63
2024-05-09T01:06:03.049Z,22.03
2024-05-09T01:08:32.916Z,20.50
2024-05-09T01:11:02.703Z,22.37
2024-05-09T01:13:32.283Z,21.77
2024-05-09T01:16:01.784Z,20.57
2024-05-09T01:18:34.115Z,21.50
2024-05-09T01:21:04.433Z,21.37
2024-05-09T01:23:37.067Z,22.90
2024-05-09T01:26:07.070Z,22.23
2024-05-09T01:28:36.794Z,20.83
2024-05-09T01:31:06.628Z,23.70
2024-05-09T01:33:36.421Z,22.43
2024-05-09T01:36:06.466Z,22.43
2024-05-09T01:38:38.757Z,24.90
2024-05-09T01:41:08.725Z,22.83
2024-05-09T01:43:38.353Z,22.00
2024-05-09T01:46:07.961Z,20.50
2024-05-09T01:48:37.779Z,20.33
2024-05-09T01:51:08.074Z,21.33
2024-05-09T01:53:40.534Z,20.13
2024-05-09T01:56:11.020Z,19.87
2024-05-09T01:58:40.679Z,21.10
2024-05-09T02:01:10.409Z,20.80
2024-05-09T02:03:40.176Z,20.50
2024-05-09T02:06:10.180Z,19.97
2024-05-09T02:08:42.597Z,21.27
2024-05-09T02:11:12.437Z,21.23
2024-05-09T02:13:42.280Z,18.97
2024-05-09T02:16:14.984Z,19.87
2024-05-09T02:18:44.885Z,21.00
2024-05-09T02:21:14.530Z,18.53
2024-05-09T02:23:46.791Z,20.73
2024-05-09T02:26:16.528Z,20.73
2024-05-09T02:28:46.209Z,19.70
2024-05-09T02:31:15.968Z,19.50
2024-05-09T02:33:43.367Z,19.67
2024-05-09T02:36:13.074Z,20.47
2024-05-09T02:38:40.022Z,21.87
2024-05-09T02:41:12.341Z,21.67
2024-05-09T02:43:39.398Z,24.43
2024-05-09T02:46:09.674Z,24.13
2024-05-09T02:48:36.853Z,22.27
2024-05-09T02:51:07.303Z,24.10
2024-05-09T02:53:34.518Z,21.43
2024-05-09T02:56:04.338Z,22.70
2024-05-09T02:58:36.682Z,24.87
2024-05-09T03:01:03.808Z,21.90
2024-05-09T03:03:33.811Z,22.17
2024-05-09T03:06:02.063Z,21.27
2024-05-09T03:08:31.819Z,22.93
2024-05-09T03:10:59.030Z,24.67
2024-05-09T03:13:28.733Z,22.03
2024-05-09T03:15:59.808Z,20.30
2024-05-09T03:18:29.622Z,19.17
2024-05-09T03:20:56.738Z,22.03
2024-05-09T03:23:26.745Z,26.23
2024-05-09T03:25:54.415Z,21.83
2024-05-09T03:28:24.157Z,19.57
2024-05-09T03:30:51.265Z,23.27
2024-05-09T03:33:24.038Z,20.77
2024-05-09T03:35:51.283Z,25.60
2024-05-09T03:38:21.037Z,23.07
2024-05-09T03:40:51.603Z,24.63
2024-05-09T03:43:18.918Z,21.87
2024-05-09T03:45:50.282Z,25.00
2024-05-09T03:48:17.589Z,23.17
2024-05-09T03:50:50.905Z,22.70
2024-05-09T03:53:18.064Z,21.40
2024-05-09T03:55:47.888Z,22.27
2024-05-09T03:58:14.937Z,19.90
2024-05-09T04:00:44.795Z,22.20
2024-05-09T04:03:13.179Z,22.77
2024-05-09T04:05:44.203Z,22.67
2024-05-09T04:08:14.575Z,22.33
2024-05-09T04:10:44.561Z,22.30
2024-05-09T04:13:11.546Z,20.17
2024-05-09T04:15:41.198Z,25.17
2024-05-09T04:18:08.474Z,22.37
2024-05-09T04:20:40.621Z,21.87
2024-05-09T04:23:10.334Z,20.77
2024-05-09T04:25:44.577Z,21.23
2024-05-09T04:28:12.222Z,20.77
2024-05-09T04:30:42.611Z,22.77
2024-05-09T04:33:12.174Z,22.23
2024-05-09T04:35:44.976Z,23.90
2024-05-09T04:38:12.568Z,21.87
2024-05-09T04:40:45.075Z,21.37
2024-05-09T04:43:14.471Z,22.60
2024-05-09T04:45:44.209Z,22.10
2024-05-09T04:48:11.573Z,20.53
2024-05-09T04:50:41.520Z,21.30
2024-05-09T04:53:10.373Z,21.57
2024-05-09T04:55:40.982Z,33.07
2024-05-09T04:58:11.612Z,24.47
2024-05-09T05:00:41.812Z,23.83
2024-05-09T05:03:12.865Z,24.13
2024-05-09T05:05:45.953Z,26.07
2024-05-09T05:08:14.021Z,22.93
2024-05-09T05:10:44.036Z,23.50
2024-05-09T05:13:18.388Z,20.50
2024-05-09T05:15:48.812Z,23.57
2024-05-09T05:18:16.263Z,26.67
2024-05-09T05:20:46.191Z,25.13
2024-05-09T05:23:16.713Z,23.83
2024-05-09T05:25:44.201Z,26.10
2024-05-09T05:28:17.241Z,29.30
2024-05-09T05:30:44.454Z,28.53
2024-05-09T05:33:17.143Z,24.93
2024-05-09T05:35:44.282Z,26.47
2024-05-09T05:38:14.114Z,26.70
2024-05-09T05:40:41.402Z,25.23
2024-05-09T05:43:11.566Z,27.77
2024-05-09T05:45:41.390Z,27.67
2024-05-09T05:48:11.555Z,31.43
2024-05-09T05:50:39.026Z,27.30
2024-05-09T05:53:09.507Z,26.53
2024-05-09T05:55:37.103Z,29.63
2024-05-09T05:58:07.097Z,28.60
2024-05-09T06:00:38.671Z,25.60
2024-05-09T06:03:14.565Z,28.07
2024-05-09T06:05:43.779Z,26.93
2024-05-09T06:08:14.335Z,27.60
2024-05-09T06:10:43.781Z,26.23
2024-05-09T06:13:14.387Z,27.33
2024-05-09T06:15:41.883Z,28.60
2024-05-09T06:18:14.685Z,29.97
2024-05-09T06:20:43.432Z,33.10
2024-05-09T06:23:14.295Z,32.20
2024-05-09T06:25:42.587Z,30.47
2024-05-09T06:28:12.550Z,29.13
2024-05-09T06:30:42.480Z,29.17
2024-05-09T06:33:16.676Z,32.77
2024-05-09T06:35:44.281Z,27.80
2024-05-09T06:38:14.188Z,27.40
2024-05-09T06:40:44.034Z,33.10
2024-05-09T06:43:16.761Z,31.65
2024-05-09T06:45:47.187Z,28.77
2024-05-09T06:48:20.736Z,29.65
2024-05-09T06:50:48.388Z,28.08
2024-05-09T06:53:18.708Z,32.35
2024-05-09T06:55:45.795Z,29.40
2024-05-09T06:58:15.458Z,28.15
2024-05-09T07:01:05.873Z,28.30
2024-05-09T07:03:38.300Z,27.60
2024-05-09T07:06:05.743Z,30.05
2024-05-09T07:08:35.692Z,26.42
2024-05-09T07:11:02.957Z,26.73
2024-05-09T07:13:32.798Z,27.63
2024-05-09T07:15:59.992Z,29.58
2024-05-09T07:18:29.903Z,26.63
2024-05-09T07:20:59.787Z,27.33
2024-05-09T07:23:29.507Z,25.92
2024-05-09T07:25:57.861Z,27.25
2024-05-09T07:28:27.581Z,26.17
2024-05-09T07:30:54.594Z,26.55
2024-05-09T07:33:24.978Z,24.05
2024-05-09T07:35:52.357Z,24.02
2024-05-09T07:38:24.808Z,22.90
2024-05-09T07:40:51.800Z,22.20
2024-05-09T07:43:22.498Z,21.60
2024-05-09T07:45:53.686Z,20.70
2024-05-09T07:52:39.119Z,20.02
2024-05-09T07:53:53.283Z,17.55
2024-05-09T07:56:24.079Z,16.67
2024-05-09T07:58:55.770Z,13.48
2024-05-09T08:01:28.891Z,12.98
2024-05-09T08:03:58.759Z,14.32
2024-05-09T08:06:25.877Z,12.07
2024-05-09T08:09:02.661Z,11.85
2024-05-09T08:11:29.970Z,9.27
2024-05-09T08:13:59.640Z,9.57
2024-05-09T08:16:26.652Z,9.73
2024-05-09T08:18:56.390Z,8.10
2024-05-09T08:21:23.607Z,6.70
2024-05-09T08:23:53.199Z,8.07
2024-05-09T08:26:22.757Z,7.63
2024-05-09T08:28:52.394Z,8.10
2024-05-09T08:31:19.488Z,9.57
2024-05-09T08:33:51.033Z,7.57
2024-05-09T08:36:18.042Z,7.55
2024-05-09T08:38:47.532Z,9.07
2024-05-09T08:41:35.306Z,8.50
2024-05-09T08:44:04.807Z,8.98
2024-05-09T08:46:31.768Z,8.93
2024-05-09T08:49:01.603Z,9.70
2024-05-09T08:51:28.753Z,9.75
2024-05-09T08:53:58.360Z,9.07
2024-05-09T08:56:27.457Z,8.32
2024-05-09T08:59:00.416Z,12.95
2024-05-09T09:01:30.871Z,12.80
2024-05-09T09:04:00.853Z,15.00
2024-05-09T09:06:27.782Z,14.85
2024-05-09T09:08:57.330Z,13.55
2024-05-09T09:11:24.380Z,14.15
2024-05-09T09:13:53.894Z,14.10
2024-05-09T09:16:32.172Z,14.52
2024-05-09T09:19:03.095Z,12.82
2024-05-09T09:21:30.117Z,13.13
2024-05-09T09:23:59.667Z,14.23
2024-05-09T09:26:33.195Z,12.55
2024-05-09T09:29:00.878Z,11.27
2024-05-09T09:31:33.161Z,10.57
2024-05-09T09:34:06.904Z,9.88
2024-05-09T09:36:36.606Z,9.02
2024-05-09T09:39:03.458Z,7.38
2024-05-09T09:41:32.945Z,9.55
2024-05-09T09:43:59.771Z,8.20
2024-05-09T09:46:29.489Z,9.18
2024-05-09T09:48:59.051Z,9.75
2024-05-09T09:51:28.613Z,13.50
2024-05-09T09:53:55.498Z,17.17
2024-05-09T09:56:25.016Z,18.30
2024-05-09T09:58:51.823Z,22.52
2024-05-09T10:01:21.342Z,17.42
2024-05-09T10:03:48.420Z,19.20
2024-05-09T10:06:20.624Z,19.13
2024-05-09T10:08:47.451Z,18.88
2024-05-09T10:11:17.012Z,17.13
2024-05-09T10:13:43.917Z,18.23
2024-05-09T10:16:14.020Z,16.05
2024-05-09T10:18:41.451Z,15.88
2024-05-09T10:21:23.270Z,14.15
2024-05-09T10:23:59.812Z,13.68
2024-05-09T10:26:35.708Z,15.73
2024-05-09T10:29:11.147Z,13.48
2024-05-09T10:31:41.156Z,15.20
2024-05-09T10:34:08.071Z,14.80
2024-05-09T10:36:44.327Z,13.27
2024-05-09T10:39:13.370Z,11.98
2024-05-09T10:41:42.898Z,12.45
2024-05-09T10:44:14.847Z,10.85
2024-05-09T10:46:45.291Z,10.73
2024-05-09T10:49:13.028Z,10.30
2024-05-09T10:51:46.528Z,11.13
2024-05-09T10:54:13.502Z,9.88
2024-05-09T10:56:43.255Z,10.15
2024-05-09T10:59:10.144Z,10.23
2024-05-09T11:01:39.709Z,10.07
2024-05-09T11:04:06.723Z,11.82
2024-05-09T11:06:38.137Z,8.88
2024-05-09T11:09:07.762Z,9.45
2024-05-09T11:11:37.236Z,8.85
2024-05-09T11:14:11.935Z,8.60
2024-05-09T11:16:41.380Z,8.10
2024-05-09T11:19:12.220Z,8.20
2024-05-09T11:21:41.749Z,8.45
2024-05-09T11:24:11.799Z,7.65
2024-05-09T11:26:41.362Z,10.70
2024-05-09T11:29:08.256Z,9.32
2024-05-09T11:31:48.111Z,9.38
2024-05-09T11:34:15.212Z,9.43
2024-05-09T11:36:44.727Z,10.63
2024-05-09T11:39:14.811Z,8.88
2024-05-09T11:41:44.375Z,9.57
2024-05-09T11:44:11.498Z,8.80
2024-05-09T11:46:41.959Z,8.75
2024-05-09T11:49:09.547Z,8.65
2024-05-09T11:51:39.149Z,8.73
2024-05-09T11:54:06.061Z,8.90
2024-05-09T11:56:38.104Z,9.13
2024-05-09T11:59:04.944Z,9.55
2024-05-09T12:01:34.440Z,8.43
2024-05-09T12:04:01.689Z,8.02
2024-05-09T12:06:32.040Z,8.77
2024-05-09T12:08:58.967Z,8.82
2024-05-09T12:11:28.457Z,9.63
2024-05-09T12:13:57.943Z,8.70
2024-05-09T12:16:27.540Z,7.90
2024-05-09T12:18:54.480Z,8.35
2024-05-09T12:21:24.002Z,8.00
2024-05-09T12:23:50.839Z,9.15
2024-05-09T12:26:20.269Z,12.82
2024-05-09T12:28:47.127Z,8.02
2024-05-09T12:31:19.292Z,9.05
2024-05-09T12:33:46.181Z,8.82
2024-05-09T12:36:15.793Z,8.60
2024-05-09T12:38:42.647Z,7.50
2024-05-09T12:41:12.838Z,7.70
2024-05-09T12:43:39.709Z,7.82
2024-05-09T12:46:09.344Z,6.97
2024-05-09T12:48:38.968Z,7.03
2024-05-09T12:51:08.734Z,8.85
2024-05-09T12:53:36.158Z,7.95
2024-05-09T12:56:07.219Z,8.32
2024-05-09T12:58:35.773Z,8.27
2024-05-09T13:01:05.283Z,8.15
2024-05-09T13:03:32.350Z,9.35
2024-05-09T13:06:05.536Z,10.70
2024-05-09T13:08:32.388Z,9.20
2024-05-09T13:11:01.838Z,8.55
2024-05-09T13:13:29.173Z,8.98
2024-05-09T13:15:58.797Z,8.43
2024-05-09T13:18:25.778Z,8.75
2024-05-09T13:20:55.248Z,9.52
2024-05-09T13:23:24.785Z,7.93
2024-05-09T13:25:54.291Z,7.40
2024-05-09T13:28:22.675Z,8.20
2024-05-09T13:30:52.235Z,7.30
2024-05-09T13:33:19.250Z,7.40
2024-05-09T13:38:43.375Z,8.55
2024-05-09T13:41:11.610Z,7.45
2024-05-09T13:43:41.456Z,8.15
2024-05-09T13:46:08.574Z,7.47
2024-05-09T13:48:38.266Z,7.65
2024-05-09T13:51:08.178Z,6.82
2024-05-09T13:53:37.674Z,8.60
2024-05-09T13:56:08.890Z,6.00
2024-05-09T13:58:38.413Z,6.65
2024-05-09T14:01:05.591Z,8.45
2024-05-09T14:03:35.402Z,7.93
2024-05-09T14:06:02.480Z,5.63
2024-05-09T14:08:32.082Z,6.30
2024-05-09T14:10:59.149Z,6.78
2024-05-09T14:13:31.378Z,5.82
2024-05-09T14:15:58.438Z,7.57
2024-05-09T14:18:28.125Z,6.15
2024-05-09T14:20:54.996Z,8.05
2024-05-09T14:23:25.330Z,7.57
2024-05-09T14:25:53.398Z,8.68
2024-05-09T14:28:23.222Z,8.88
2024-05-09T14:30:53.277Z,7.88
2024-05-09T14:33:26.571Z,7.25
2024-05-09T14:35:53.910Z,7.93
2024-05-09T14:38:23.459Z,31.90
2024-05-09T14:40:50.753Z,6.70
2024-05-09T14:43:20.787Z,7.82
2024-05-09T14:45:47.848Z,6.95
2024-05-09T14:48:20.273Z,8.35
2024-05-09T14:50:47.677Z,6.60
2024-05-09T14:53:17.522Z,5.93
2024-05-09T14:55:44.686Z,9.20
2024-05-09T14:58:14.244Z,11.05
2024-05-09T15:00:45.727Z,11.32
2024-05-09T15:03:22.559Z,7.63
2024-05-09T15:05:50.575Z,5.65
2024-05-09T15:08:20.572Z,9.27
2024-05-09T15:10:49.855Z,6.13
2024-05-09T15:13:20.150Z,5.95
2024-05-09T15:15:47.197Z,6.32
2024-05-09T15:18:17.050Z,6.22
2024-05-09T15:20:46.901Z,5.82
2024-05-09T15:23:16.568Z,6.80
2024-05-09T15:25:44.715Z,6.90
2024-05-09T15:28:14.328Z,7.07
2024-05-09T15:30:45.446Z,6.63
2024-05-09T15:33:16.319Z,7.40
2024-05-09T15:35:44.399Z,7.45
2024-05-09T15:38:17.854Z,8.50
2024-05-09T15:40:45.323Z,9.02
2024-05-09T15:43:14.995Z,8.25
2024-05-09T15:45:42.220Z,8.82
2024-05-09T15:48:12.024Z,9.20
2024-05-09T15:50:41.459Z,9.43
2024-05-09T15:53:13.140Z,9.35
2024-05-09T15:55:43.289Z,8.35
2024-05-09T15:58:13.330Z,8.75
2024-05-09T16:00:44.864Z,9.25
2024-05-09T16:03:14.293Z,8.90
2024-05-09T16:05:46.829Z,9.07
2024-05-09T16:08:14.602Z,10.77
2024-05-09T16:10:48.096Z,9.80
2024-05-09T16:13:15.748Z,9.10
2024-05-09T16:15:46.197Z,8.93
2024-05-09T16:18:13.384Z,10.32
2024-05-09T16:20:44.881Z,11.10
2024-05-09T16:23:13.428Z,11.27
2024-05-09T16:25:47.933Z,12.77
2024-05-09T16:28:15.341Z,11.32
2024-05-09T16:30:45.040Z,12.32
2024-05-09T16:33:12.552Z,11.52
2024-05-09T16:35:42.281Z,12.20
2024-05-09T16:38:09.271Z,11.25
2024-05-09T16:40:40.966Z,14.25
2024-05-09T16:43:12.028Z,12.80
2024-05-09T16:45:43.782Z,12.60
2024-05-09T16:48:11.432Z,12.68
2024-05-09T16:50:41.035Z,13.55
2024-05-09T16:53:08.484Z,13.38
2024-05-09T16:55:38.495Z,12.63
2024-05-09T16:58:07.750Z,14.35
2024-05-09T17:00:43.253Z,13.38
2024-05-09T17:03:13.308Z,13.63
2024-05-09T17:05:45.712Z,15.52
2024-05-09T17:08:16.307Z,13.50
2024-05-09T17:10:46.542Z,14.60
2024-05-09T17:13:16.273Z,14.68
2024-05-09T17:15:48.807Z,19.60
2024-05-09T17:18:19.578Z,12.68
2024-05-09T17:20:49.193Z,12.95
2024-05-09T17:23:16.184Z,11.52
2024-05-09T17:25:45.928Z,11.73
2024-05-09T17:28:12.956Z,11.02
2024-05-09T17:30:43.185Z,11.75
2024-05-09T17:33:13.492Z,10.65
2024-05-09T17:35:45.913Z,9.88
2024-05-09T17:38:13.121Z,9.35
2024-05-09T17:40:42.795Z,10.63
2024-05-09T17:43:10.766Z,9.73
2024-05-09T17:45:41.678Z,10.38
2024-05-09T17:48:10.492Z,10.00
2024-05-09T17:50:46.348Z,9.45
2024-05-09T17:53:13.244Z,9.57
2024-05-09T17:55:42.823Z,9.70
2024-05-09T17:58:10.301Z,12.23
2024-05-09T18:00:42.158Z,11.13
2024-05-09T18:03:12.015Z,11.73
2024-05-09T18:05:45.829Z,8.80
2024-05-09T18:08:13.538Z,8.02
2024-05-09T18:10:44.360Z,8.63
2024-05-09T18:13:13.752Z,9.40
2024-05-09T18:15:45.084Z,8.35
2024-05-09T18:18:12.582Z,7.97
2024-05-09T18:20:46.210Z,8.93
2024-05-09T18:23:14.827Z,8.07
2024-05-09T18:25:45.791Z,9.45
2024-05-09T18:28:13.077Z,10.30
2024-05-09T18:30:43.771Z,9.57
2024-05-09T18:33:11.665Z,8.10
2024-05-09T18:35:45.581Z,8.48
2024-05-09T18:38:17.890Z,10.38
2024-05-09T18:40:49.274Z,9.52
2024-05-09T18:43:20.375Z,8.88
2024-05-09T18:45:54.136Z,8.93
2024-05-09T18:48:22.045Z,8.80
2024-05-09T18:50:54.403Z,8.43
2024-05-09T18:53:21.444Z,8.02
2024-05-09T18:55:51.072Z,9.73
2024-05-09T18:58:18.096Z,8.18
2024-05-09T19:00:50.352Z,9.07
2024-05-09T19:03:18.776Z,9.55
2024-05-09T19:05:48.744Z,15.35
2024-05-09T19:08:18.398Z,8.70
2024-05-09T19:10:48.153Z,8.73
2024-05-09T19:13:15.628Z,8.65
2024-05-09T19:15:45.438Z,8.98
2024-05-09T19:18:13.253Z,8.95
2024-05-09T19:20:43.900Z,9.60
2024-05-09T19:23:12.410Z,7.85
2024-05-09T19:25:44.734Z,9.57
2024-05-09T19:28:11.718Z,8.63
2024-05-09T19:30:42.814Z,9.07
2024-05-09T19:33:11.279Z,9.52
2024-05-09T19:38:16.722Z,8.98
2024-05-09T19:40:46.341Z,11.23
2024-05-09T19:43:16.142Z,9.27
2024-05-09T19:45:43.598Z,9.25
2024-05-09T19:48:13.339Z,8.50
2024-05-09T19:50:43.726Z,10.60
2024-05-09T19:53:14.546Z,10.45
2024-05-09T19:55:41.694Z,9.95
2024-05-09T19:58:13.916Z,8.27
2024-05-09T20:00:43.059Z,9.18
2024-05-09T20:03:14.488Z,10.90
2024-05-09T20:05:42.497Z,9.48
2024-05-09T20:08:12.090Z,10.30
2024-05-09T20:10:39.075Z,10.98
2024-05-09T20:13:09.040Z,10.52
2024-05-09T20:15:39.801Z,10.18
2024-05-09T20:18:09.877Z,10.60
2024-05-09T20:20:40.925Z,10.97
2024-05-09T20:23:12.822Z,10.77
2024-05-09T20:25:39.958Z,10.87
2024-05-09T20:28:11.725Z,10.10
2024-05-09T20:30:42.393Z,10.33
2024-05-09T20:33:12.404Z,10.03
2024-05-09T20:35:39.477Z,9.43
2024-05-09T20:38:08.948Z,10.43
2024-05-09T20:40:38.673Z,12.67
2024-05-09T20:43:09.961Z,11.73
2024-05-09T20:45:37.575Z,11.00
2024-05-09T20:48:11.351Z,9.93
2024-05-09T20:50:41.379Z,9.80
2024-05-09T20:53:14.784Z,10.07
2024-05-09T20:55:42.324Z,10.30
2024-05-09T20:58:12.342Z,11.17
2024-05-09T21:00:43.101Z,10.67
2024-05-09T21:03:17.957Z,10.17
2024-05-09T21:05:45.576Z,10.47
2024-05-09T21:08:15.354Z,10.40
2024-05-09T21:10:42.407Z,12.97
2024-05-09T21:13:12.078Z,10.50
2024-05-09T21:15:39.088Z,11.40
2024-05-09T21:18:08.817Z,11.43
2024-05-09T21:20:38.602Z,10.53
2024-05-09T21:23:08.276Z,11.63
2024-05-09T21:25:35.210Z,10.73
2024-05-09T21:28:04.837Z,10.90
2024-05-09T21:30:40.400Z,10.37
2024-05-09T21:33:14.083Z,11.63
2024-05-09T21:35:44.996Z,12.20
2024-05-09T21:38:16.036Z,13.37
2024-05-09T21:40:43.095Z,17.60
2024-05-09T21:43:12.728Z,16.40
2024-05-09T21:45:39.913Z,12.63
2024-05-09T21:48:10.559Z,12.43
2024-05-09T21:50:41.100Z,15.20
2024-05-09T21:53:14.435Z,12.57
2024-05-09T21:55:41.726Z,13.40
2024-05-09T21:58:11.395Z,12.33
2024-05-09T22:00:40.090Z,13.97
2024-05-09T22:03:10.935Z,12.53
2024-05-09T22:05:41.908Z,13.43
2024-05-09T22:08:14.430Z,13.20
2024-05-09T22:10:41.522Z,12.43
2024-05-09T22:13:11.199Z,11.27
2024-05-09T22:15:39.837Z,12.20
2024-05-09T22:18:11.180Z,13.27
2024-05-09T22:20:44.646Z,12.20
2024-05-09T22:23:18.187Z,12.37
2024-05-09T22:25:45.036Z,12.07
2024-05-09T22:28:16.150Z,11.93
2024-05-09T22:30:45.749Z,15.23
2024-05-09T22:33:15.847Z,12.63
2024-05-09T22:35:42.960Z,11.37
2024-05-09T22:38:12.459Z,11.33
2024-05-09T22:40:47.715Z,12.20
2024-05-09T22:43:21.722Z,12.33
2024-05-09T22:45:50.721Z,12.40
2024-05-09T22:48:20.704Z,12.07
2024-05-09T22:50:47.634Z,12.80
2024-05-09T22:53:17.208Z,11.83
2024-05-09T22:55:46.722Z,11.97
2024-05-09T22:58:16.420Z,11.87
2024-05-09T23:00:43.475Z,12.70
2024-05-09T23:03:14.085Z,13.67
2024-05-09T23:05:40.996Z,11.17
2024-05-09T23:08:10.973Z,12.87
2024-05-09T23:10:38.458Z,12.27
2024-05-09T23:13:10.919Z,15.97
2024-05-09T23:15:38.103Z,13.23
2024-05-09T23:18:08.756Z,12.67
2024-05-09T23:20:40.026Z,11.73
2024-05-09T23:23:07.453Z,13.20
2024-05-09T23:25:37.147Z,12.53
2024-05-09T23:28:04.707Z,13.53
2024-05-09T23:30:39.914Z,13.33
2024-05-09T23:33:09.184Z,12.47
2024-05-09T23:35:39.025Z,11.90
2024-05-09T23:38:05.858Z,13.37
2024-05-09T23:40:39.561Z,11.87
2024-05-09T23:43:08.620Z,12.70
2024-05-09T23:45:41.522Z,12.17
2024-05-09T23:48:09.178Z,12.70
2024-05-09T23:50:40.378Z,12.03
2024-05-09T23:53:09.228Z,12.93
2024-05-09T23:55:39.745Z,15.57
2024-05-09T23:58:06.837Z,12.23
